Huvudsida
METAR-TAF:

METAR-TAF

Flygplatser :

Oljeplattform

Norne Fpso, Norge

latitud: 66-01-48N, longitud: 008-04-48E, höjd: 10 m

Aktuellt väderrapport

Denna rapport gjordes för 10 timmar och 5 minuter sedan, klockan 16:50 UTC
Vind 22 kt från nord/nordost
Temperatur 8°C
Fuktighet 76%
Tryck 1019 hPa
Sikt 10 km eller mer
Spridda moln på en höjd av 2500 ft, Högtornande cumulus.
lätt duggregn

METAR: ENNE 181650Z 02022KT 9999 -DZ SCT025TCU 08/04 Q1019 W///S4

Tid: 04:55 (02:55 UTC)

Väderprognos

Denna rapport gjordes för 15 timmar och 55 minuter sedan, klockan 11:00 UTC
Prognos gäller från 18 kl. 12 UTC till 18 kl. 17 UTC
Vind 20 kt från nord/nordväst
Sikt 10 km eller mer
Få moln på en höjd av 2000 ft, Högtornande cumulus.
Brutna moln på en höjd av 3500 ft
lätta regnskurar
Temporärt
från 18 kl. 12 UTC till 18 kl. 17 UTC
Brutna moln på en höjd av 1800 ft, Cumulonimbus.
regnskurar

TAF: ENNE 181100Z 1812/1817 34020KT 9999 -SHRA FEW020TCU BKN035 TEMPO 1812/1817 SHRA BKN018CB

Aktuella väderrapporter och prognoser från 4000 flygplatser (METAR- och TAF-rapporter).

De tillgängliga stationerna syns som gula och röda prickar på kartan.

För musen över prickarna för att se namnen på stationerna.

Klicka sedan för att få väderrapporter och prognoser.

För att ändra kartan: Klicka på de gröna knapparna med ett svart kors på för att zooma in; den gröna knappen med ett streck på för att zooma ut; eller på de gröna pilarna för angränsande kartor.


METAR-TAF: